Time;durP1;ratioP1;P1;durP2;ratioP2;P2;SDS_P1;SDS_P2;PMS_P1;PMS_P2;Temp;Humidity;BMP_temperature;BMP_pressure;BME280_temperature;BME280_humidity;BME280_pressure;Samples;Min_cycle;Max_cycle;Signal;HPM_P1;HPM_P2
2022/06/20 00:02:23;;;;;;;8.60;2.33;;;13.00;99.90;;;;;;5063536;28;20039;-61
2022/06/20 00:04:50;;;;;;;9.00;2.53;;;13.00;99.90;;;;;;5047172;28;20049;-62
2022/06/20 00:07:16;;;;;;;7.05;2.35;;;13.10;99.90;;;;;;5046615;28;20084;-62
2022/06/20 00:09:42;;;;;;;9.32;2.28;;;13.20;99.90;;;;;;5053211;28;20049;-62
2022/06/20 00:12:12;;;;;;;6.90;1.95;;;13.20;99.90;;;;;;5054145;28;20051;-62
2022/06/20 00:14:38;;;;;;;7.18;2.20;;;13.10;99.90;;;;;;5065910;28;20048;-62
2022/06/20 00:17:09;;;;;;;5.57;1.85;;;13.10;99.90;;;;;;5048167;28;20041;-62
2022/06/20 00:19:35;;;;;;;7.05;2.35;;;13.00;99.90;;;;;;5048765;28;20072;-62
2022/06/20 00:22:01;;;;;;;6.30;2.08;;;12.80;99.90;;;;;;5047300;28;20059;-63
2022/06/20 00:24:27;;;;;;;6.82;1.90;;;12.60;99.90;;;;;;5036572;28;20053;-63
2022/06/20 00:26:53;;;;;;;6.60;2.05;;;12.60;99.90;;;;;;5048753;28;20060;-62
2022/06/20 00:29:19;;;;;;;7.80;2.50;;;12.70;99.90;;;;;;5078293;28;20048;-62
2022/06/20 00:31:45;;;;;;;7.05;2.65;;;12.50;99.90;;;;;;5046543;28;20048;-63
2022/06/20 00:34:11;;;;;;;7.00;2.13;;;12.30;99.90;;;;;;5051685;28;20048;-63
2022/06/20 00:36:36;;;;;;;5.75;2.25;;;12.20;99.90;;;;;;5048407;28;20071;-62
2022/06/20 00:39:04;;;;;;;6.13;2.05;;;12.20;99.90;;;;;;5048406;28;20037;-62
2022/06/20 00:41:32;;;;;;;5.45;2.03;;;12.20;99.90;;;;;;5056147;28;20060;-62
2022/06/20 00:43:59;;;;;;;6.38;2.10;;;12.20;99.90;;;;;;5041449;28;20045;-62
2022/06/20 00:46:49;;;;;;;5.22;1.98;;;12.20;99.90;;;;;;5048403;28;20493;-62
2022/06/20 00:49:28;;;;;;;7.78;2.63;;;12.20;99.90;;;;;;5030551;28;20040;-62
2022/06/20 00:52:15;;;;;;;10.65;3.05;;;12.40;99.90;;;;;;5058804;28;20113;-62
2022/06/20 00:55:01;;;;;;;7.88;2.25;;;12.40;99.90;;;;;;5046403;28;20045;-62
2022/06/20 00:57:36;;;;;;;9.50;2.88;;;12.40;99.90;;;;;;5064633;28;20536;-62
2022/06/20 01:00:18;;;;;;;6.75;2.63;;;12.40;99.90;;;;;;5046086;28;20072;-63
2022/06/20 01:02:48;;;;;;;4.43;2.30;;;12.40;99.90;;;;;;5074622;28;20045;-62
2022/06/20 01:05:27;;;;;;;7.85;2.47;;;12.60;99.90;;;;;;5061519;28;20516;-62
2022/06/20 01:08:05;;;;;;;6.65;2.85;;;12.70;99.90;;;;;;5066448;28;20048;-63
2022/06/20 01:11:00;;;;;;;6.40;2.17;;;12.80;99.90;;;;;;5059449;28;20048;-62
2022/06/20 01:13:27;;;;;;;9.55;3.13;;;12.80;99.90;;;;;;5046223;28;20061;-62
2022/06/20 01:16:00;;;;;;;6.43;2.55;;;12.90;99.90;;;;;;5062196;28;20103;-63
2022/06/20 01:18:30;;;;;;;7.75;2.47;;;13.10;99.90;;;;;;5056052;28;20052;-63
2022/06/20 01:20:58;;;;;;;4.82;2.22;;;13.00;99.90;;;;;;5068887;28;20060;-63
2022/06/20 01:23:45;;;;;;;8.88;2.97;;;12.90;99.90;;;;;;5057690;28;20056;-62
2022/06/20 01:26:51;;;;;;;7.68;2.63;;;12.90;99.90;;;;;;5057456;28;20041;-62
2022/06/20 01:29:17;;;;;;;8.68;2.70;;;13.00;99.90;;;;;;5044809;28;20059;-63
2022/06/20 01:31:48;;;;;;;9.18;3.17;;;13.10;99.90;;;;;;5056479;28;20057;-62
2022/06/20 01:34:17;;;;;;;9.65;2.67;;;13.00;99.90;;;;;;5051045;28;20527;-62
2022/06/20 01:39:34;;;;;;;8.40;2.53;;;12.80;99.90;;;;;;5067069;28;20571;-62
2022/06/20 01:42:21;;;;;;;9.80;3.10;;;12.90;99.90;;;;;;5062666;28;20052;-62
2022/06/20 01:48:12;;;;;;;6.95;2.20;;;12.80;99.90;;;;;;5060397;28;20052;-62
2022/06/20 01:50:39;;;;;;;7.57;2.90;;;12.90;99.90;;;;;;5062751;28;20068;-62
2022/06/20 01:53:07;;;;;;;8.15;2.55;;;12.90;99.90;;;;;;5065873;28;20114;-62
2022/06/20 01:55:34;;;;;;;8.73;2.50;;;12.90;99.90;;;;;;5069910;28;20063;-62
2022/06/20 01:58:10;;;;;;;9.18;2.83;;;12.90;99.90;;;;;;5047237;28;20037;-62
2022/06/20 02:00:36;;;;;;;5.50;2.38;;;12.90;99.90;;;;;;5064882;28;20049;-62
2022/06/20 02:03:08;;;;;;;7.47;3.03;;;12.80;99.90;;;;;;5064743;28;20041;-62
2022/06/20 02:05:35;;;;;;;6.13;2.75;;;12.90;99.90;;;;;;5062306;28;20041;-62
2022/06/20 02:08:04;;;;;;;9.48;2.83;;;12.90;99.90;;;;;;5065017;28;20079;-62
2022/06/20 02:10:56;;;;;;;11.02;2.80;;;12.80;99.90;;;;;;5053161;28;20049;-62
2022/06/20 02:13:24;;;;;;;9.60;2.45;;;12.70;99.90;;;;;;5066955;28;20045;-62
2022/06/20 02:15:53;;;;;;;6.90;2.40;;;12.60;99.90;;;;;;5044265;28;20045;-62
2022/06/20 02:18:21;;;;;;;7.53;2.72;;;12.50;99.90;;;;;;5063881;28;20040;-62
2022/06/20 02:20:50;;;;;;;10.95;3.13;;;12.60;99.90;;;;;;5061182;28;20091;-62
2022/06/20 02:23:24;;;;;;;6.40;2.95;;;12.60;99.90;;;;;;5043759;28;20072;-62
2022/06/20 02:25:53;;;;;;;11.07;3.10;;;12.60;99.90;;;;;;5062564;28;20508;-62
2022/06/20 02:28:27;;;;;;;6.43;2.40;;;12.60;99.90;;;;;;5061648;28;20049;-62
2022/06/20 02:30:53;;;;;;;9.50;2.78;;;12.60;99.90;;;;;;5060310;28;20070;-62
2022/06/20 02:33:26;;;;;;;7.78;3.08;;;12.50;99.90;;;;;;5062490;28;20072;-62
2022/06/20 02:35:54;;;;;;;7.65;2.70;;;12.40;99.90;;;;;;5063493;28;20045;-63
2022/06/20 02:38:21;;;;;;;15.23;4.07;;;12.30;99.90;;;;;;5062274;28;20060;-62
2022/06/20 02:40:48;;;;;;;7.78;2.88;;;12.20;99.90;;;;;;5044835;28;20052;-62
2022/06/20 02:43:22;;;;;;;7.97;2.80;;;12.00;99.90;;;;;;5054895;28;20060;-63
2022/06/20 02:45:50;;;;;;;4.25;2.20;;;12.00;99.90;;;;;;5062626;28;20143;-62
2022/06/20 02:48:17;;;;;;;10.18;3.00;;;11.70;99.90;;;;;;5045945;28;20070;-62
2022/06/20 02:50:49;;;;;;;13.63;3.50;;;11.70;99.90;;;;;;5045732;28;20041;-62
2022/06/20 02:53:55;;;;;;;10.45;3.17;;;11.60;99.90;;;;;;5063832;28;20045;-62
2022/06/20 02:56:24;;;;;;;9.07;2.65;;;11.50;99.90;;;;;;4998249;28;20057;-62
2022/06/20 02:58:56;;;;;;;7.45;2.55;;;11.50;99.90;;;;;;4981939;28;20050;-62
2022/06/20 03:01:40;;;;;;;6.75;2.42;;;11.30;99.90;;;;;;4982080;28;20576;-62
2022/06/20 03:04:10;;;;;;;6.00;2.65;;;11.10;99.90;;;;;;4979246;28;20111;-62
2022/06/20 03:06:49;;;;;;;8.25;2.72;;;10.90;99.90;;;;;;4963709;28;20190;-62
2022/06/20 03:09:23;;;;;;;6.90;2.83;;;10.80;99.90;;;;;;4982604;28;20047;-62
2022/06/20 03:11:49;;;;;;;9.93;2.80;;;10.80;99.90;;;;;;4970985;28;20051;-62
2022/06/20 03:14:19;;;;;;;5.22;2.67;;;11.00;99.90;;;;;;4968373;28;20082;-62
2022/06/20 03:16:45;;;;;;;8.35;2.60;;;11.10;99.90;;;;;;4967149;28;20055;-62
2022/06/20 03:19:19;;;;;;;7.60;2.72;;;11.10;99.90;;;;;;4982356;28;20075;-62
2022/06/20 03:21:47;;;;;;;9.82;2.80;;;11.10;99.90;;;;;;4957825;29;20058;-62
2022/06/20 03:24:17;;;;;;;20.25;4.20;;;11.20;99.90;;;;;;4957176;28;20089;-62
2022/06/20 03:26:43;;;;;;;9.88;2.83;;;11.00;99.90;;;;;;4994546;28;20060;-62
2022/06/20 03:29:13;;;;;;;7.22;2.90;;;11.10;99.90;;;;;;5046666;28;20045;-62
2022/06/20 03:31:38;;;;;;;12.13;3.70;;;10.90;99.90;;;;;;5044178;28;20048;-62
2022/06/20 03:34:04;;;;;;;7.97;3.00;;;10.90;99.90;;;;;;5052120;28;20281;-62
2022/06/20 03:36:30;;;;;;;9.07;3.30;;;10.90;99.90;;;;;;5043064;28;20045;-62
2022/06/20 03:38:56;;;;;;;8.27;3.83;;;11.00;99.90;;;;;;5024231;28;20049;-62
2022/06/20 03:41:25;;;;;;;10.75;3.80;;;11.00;99.90;;;;;;5049672;28;20092;-62
2022/06/20 03:44:00;;;;;;;10.18;3.53;;;11.00;99.90;;;;;;5036814;28;20045;-62
2022/06/20 03:46:35;;;;;;;7.38;3.42;;;11.10;99.90;;;;;;5043801;28;20041;-62
2022/06/20 03:49:23;;;;;;;10.95;3.30;;;11.20;99.90;;;;;;5029784;28;20371;-62
2022/06/20 03:51:57;;;;;;;6.43;3.08;;;11.30;99.90;;;;;;5030685;28;20058;-62
2022/06/20 03:55:02;;;;;;;7.25;3.58;;;11.50;99.90;;;;;;5031833;28;20053;-62
2022/06/20 03:57:43;;;;;;;6.68;3.30;;;11.10;99.90;;;;;;5043636;28;20055;-62
2022/06/20 04:00:15;;;;;;;9.05;3.55;;;10.90;99.90;;;;;;5048310;28;20052;-62
2022/06/20 04:02:56;;;;;;;9.45;3.55;;;11.00;99.90;;;;;;5047119;28;20042;-62
2022/06/20 04:05:30;;;;;;;15.38;4.65;;;11.00;99.90;;;;;;5032387;28;20421;-62
2022/06/20 04:08:07;;;;;;;48.33;6.38;;;10.90;99.90;;;;;;5044023;28;20089;-62
2022/06/20 04:13:35;;;;;;;8.35;3.75;;;10.70;99.90;;;;;;5068866;28;20060;-62
2022/06/20 04:16:07;;;;;;;6.32;3.53;;;10.80;99.90;;;;;;5057933;28;20112;-62
2022/06/20 04:18:56;;;;;;;8.35;3.38;;;10.90;99.90;;;;;;5076426;28;20041;-62
2022/06/20 04:21:37;;;;;;;7.15;3.10;;;11.00;99.90;;;;;;5058307;28;20087;-62
2022/06/20 04:24:12;;;;;;;10.30;3.65;;;11.10;99.90;;;;;;5061631;28;20055;-62
2022/06/20 04:26:48;;;;;;;7.15;3.70;;;11.00;99.90;;;;;;5059636;28;20059;-62
2022/06/20 04:29:22;;;;;;;11.10;4.10;;;11.20;99.90;;;;;;5062925;28;20049;-62
2022/06/20 04:32:22;;;;;;;10.60;4.07;;;11.30;99.90;;;;;;5069248;28;20112;-62
2022/06/20 04:34:56;;;;;;;9.48;3.83;;;11.40;99.90;;;;;;5049759;28;20057;-61
2022/06/20 04:37:37;;;;;;;7.55;3.50;;;11.50;99.90;;;;;;5058966;28;20078;-62
2022/06/20 04:40:27;;;;;;;8.00;4.30;;;11.50;99.90;;;;;;5076640;28;20051;-62
2022/06/20 04:43:08;;;;;;;8.68;4.20;;;11.60;99.90;;;;;;5043486;28;20049;-61
2022/06/20 04:45:42;;;;;;;7.28;3.92;;;11.60;99.90;;;;;;5031281;28;20068;-62
2022/06/20 04:48:22;;;;;;;8.40;4.20;;;11.60;99.90;;;;;;5024740;28;20046;-63
2022/06/20 04:50:51;;;;;;;10.35;4.35;;;11.80;99.90;;;;;;5011101;28;20486;-62
2022/06/20 04:53:24;;;;;;;10.77;3.80;;;11.90;99.90;;;;;;5029529;28;20073;-62
2022/06/20 04:55:53;;;;;;;11.85;4.43;;;12.00;99.90;;;;;;5027558;28;20048;-61
2022/06/20 04:58:29;;;;;;;8.05;3.65;;;12.00;99.90;;;;;;5017610;28;20083;-61
2022/06/20 05:00:56;;;;;;;10.00;4.13;;;12.20;99.90;;;;;;5000018;28;20383;-61
2022/06/20 05:03:37;;;;;;;7.57;3.70;;;12.20;99.90;;;;;;5010708;28;20050;-61
2022/06/20 05:06:06;;;;;;;10.00;4.07;;;12.30;99.90;;;;;;5018459;28;20045;-61
2022/06/20 05:08:40;;;;;;;9.50;4.07;;;12.40;99.90;;;;;;5016996;28;20060;-61
2022/06/20 05:11:30;;;;;;;7.40;3.63;;;12.50;99.90;;;;;;4997634;28;20067;-61
2022/06/20 05:14:12;;;;;;;11.73;3.90;;;12.50;99.90;;;;;;5023380;28;20038;-61
2022/06/20 05:16:51;;;;;;;13.20;3.97;;;12.50;99.90;;;;;;5010284;28;20143;-61
2022/06/20 05:19:23;;;;;;;9.52;3.47;;;12.60;99.90;;;;;;5022495;28;20041;-61
2022/06/20 05:21:53;;;;;;;8.57;3.83;;;12.80;99.90;;;;;;5009885;28;20087;-62
2022/06/20 05:24:27;;;;;;;11.48;4.07;;;12.90;99.90;;;;;;5019985;28;20132;-62
2022/06/20 05:26:54;;;;;;;14.77;4.57;;;13.00;99.90;;;;;;5010820;28;20046;-61
2022/06/20 05:29:41;;;;;;;15.32;5.78;;;13.10;99.90;;;;;;5021274;28;20049;-62
2022/06/20 05:32:18;;;;;;;10.73;4.03;;;13.20;99.90;;;;;;5010340;28;20073;-61
2022/06/20 05:35:01;;;;;;;8.05;4.10;;;13.30;99.90;;;;;;4999924;28;20057;-61
2022/06/20 05:37:32;;;;;;;15.85;3.88;;;13.40;99.90;;;;;;5006372;28;20072;-62
2022/06/20 05:40:14;;;;;;;11.23;4.80;;;13.40;99.90;;;;;;5019852;28;20041;-62
2022/06/20 05:42:40;;;;;;;8.10;4.00;;;13.50;99.90;;;;;;5005733;28;20406;-62
2022/06/20 05:45:21;;;;;;;10.32;4.25;;;13.70;99.90;;;;;;5011870;28;20436;-62
2022/06/20 05:47:56;;;;;;;17.13;6.20;;;13.70;99.90;;;;;;5007947;28;20072;-62
2022/06/20 05:50:39;;;;;;;11.73;4.68;;;13.80;99.90;;;;;;5039040;28;20073;-62
2022/06/20 05:53:11;;;;;;;10.27;4.28;;;13.80;99.90;;;;;;4993118;28;20058;-61
2022/06/20 05:55:44;;;;;;;10.30;4.13;;;14.00;99.90;;;;;;4997593;28;20317;-61
2022/06/20 05:58:16;;;;;;;15.13;4.57;;;14.00;99.90;;;;;;4987339;28;20403;-62
2022/06/20 06:00:44;;;;;;;13.75;4.53;;;14.00;99.90;;;;;;5016567;28;20037;-63
2022/06/20 06:03:21;;;;;;;14.05;3.95;;;13.90;99.90;;;;;;5028395;28;20080;-62
2022/06/20 06:06:01;;;;;;;11.05;4.05;;;13.80;99.90;;;;;;5014361;28;20052;-62
2022/06/20 06:08:49;;;;;;;14.70;4.43;;;13.80;99.90;;;;;;5035717;28;20557;-62
2022/06/20 06:11:41;;;;;;;16.30;4.68;;;13.80;99.90;;;;;;5020944;28;20053;-62
2022/06/20 06:14:20;;;;;;;12.98;5.15;;;14.00;99.90;;;;;;5014534;28;20052;-62
2022/06/20 06:16:58;;;;;;;13.07;4.82;;;13.90;99.90;;;;;;5007358;28;20462;-61
2022/06/20 06:19:30;;;;;;;14.98;5.07;;;14.00;99.90;;;;;;5014044;28;20107;-61
2022/06/20 06:22:00;;;;;;;15.00;4.95;;;14.10;99.90;;;;;;5022392;28;20516;-62
2022/06/20 06:24:29;;;;;;;8.63;4.07;;;14.10;99.90;;;;;;5018840;28;20045;-62
2022/06/20 06:26:58;;;;;;;11.65;4.78;;;14.10;99.90;;;;;;5025090;28;20089;-61
2022/06/20 06:29:29;;;;;;;13.27;4.15;;;14.40;99.90;;;;;;5010850;28;20494;-61
2022/06/20 06:32:01;;;;;;;12.00;4.40;;;14.40;99.90;;;;;;5004832;28;20046;-62
2022/06/20 06:35:07;;;;;;;14.25;4.88;;;14.40;99.90;;;;;;5002050;28;20060;-62
2022/06/20 06:37:42;;;;;;;12.85;4.88;;;14.50;99.90;;;;;;4963308;28;20077;-61
2022/06/20 06:40:16;;;;;;;10.60;4.45;;;14.50;99.90;;;;;;4978538;28;20093;-61
2022/06/20 06:42:42;;;;;;;12.15;4.95;;;14.60;99.90;;;;;;4969482;28;20054;-61
2022/06/20 06:45:15;;;;;;;15.68;4.95;;;14.60;99.90;;;;;;4956693;28;20149;-61
2022/06/20 06:47:48;;;;;;;15.57;4.70;;;14.70;99.90;;;;;;4974017;28;20050;-61
2022/06/20 06:50:49;;;;;;;11.13;4.78;;;14.80;99.90;;;;;;4962332;28;20612;-61
2022/06/20 06:53:25;;;;;;;14.00;4.50;;;14.80;99.90;;;;;;4964095;28;20083;-62
2022/06/20 06:55:57;;;;;;;11.13;4.55;;;14.50;99.90;;;;;;4961028;28;20065;-63
2022/06/20 06:58:44;;;;;;;13.77;5.18;;;14.60;99.90;;;;;;4940949;29;20063;-62
2022/06/20 07:01:16;;;;;;;11.82;3.92;;;14.50;99.90;;;;;;4943111;28;20051;-61
2022/06/20 07:03:49;;;;;;;15.30;3.90;;;14.60;99.90;;;;;;4990718;28;20534;-61
2022/06/20 07:06:30;;;;;;;9.55;4.10;;;14.80;99.90;;;;;;4950303;28;20062;-62
2022/06/20 07:09:06;;;;;;;8.43;3.55;;;14.90;99.90;;;;;;4997203;28;20639;-61
2022/06/20 07:11:34;;;;;;;13.73;4.22;;;14.90;99.90;;;;;;4977008;28;20097;-61
2022/06/20 07:14:28;;;;;;;10.75;4.07;;;14.70;99.90;;;;;;5019989;28;20088;-62
2022/06/20 07:17:27;;;;;;;8.63;3.75;;;14.90;99.90;;;;;;5014094;28;20073;-61
2022/06/20 07:19:54;;;;;;;8.63;3.45;;;14.90;99.90;;;;;;5004672;28;20053;-62
2022/06/20 07:22:23;;;;;;;8.57;3.72;;;15.10;99.90;;;;;;4991298;28;20145;-61
2022/06/20 07:24:50;;;;;;;14.70;3.97;;;15.30;99.90;;;;;;5004018;28;20045;-61
2022/06/20 07:27:39;;;;;;;10.52;3.80;;;15.50;99.90;;;;;;4991520;28;20054;-62
2022/06/20 07:30:16;;;;;;;10.02;4.00;;;15.70;99.90;;;;;;4999780;28;20062;-62
2022/06/20 07:32:41;;;;;;;11.77;3.85;;;15.90;99.90;;;;;;4985510;28;20454;-62
2022/06/20 07:35:46;;;;;;;6.88;4.28;;;15.80;99.90;;;;;;5016335;28;20083;-62
2022/06/20 07:38:33;;;;;;;18.33;5.00;;;15.60;99.90;;;;;;5030273;28;20644;-62
2022/06/20 07:41:06;;;;;;;9.82;4.50;;;15.30;99.90;;;;;;5020433;28;20697;-61
2022/06/20 07:43:54;;;;;;;9.80;4.63;;;15.30;99.90;;;;;;5004065;28;20080;-62
2022/06/20 07:46:34;;;;;;;12.02;4.35;;;15.30;99.90;;;;;;5016620;28;20056;-62
2022/06/20 07:49:10;;;;;;;10.43;4.43;;;15.40;99.90;;;;;;5015045;28;20099;-62
2022/06/20 07:51:40;;;;;;;14.20;4.80;;;15.60;99.90;;;;;;5010523;28;20049;-61
2022/06/20 07:54:27;;;;;;;15.00;4.78;;;15.70;99.90;;;;;;5022998;28;20045;-62
2022/06/20 07:57:08;;;;;;;10.27;3.90;;;15.90;99.90;;;;;;5011957;28;20464;-62
2022/06/20 08:00:01;;;;;;;10.25;4.13;;;16.20;99.90;;;;;;5036396;28;20056;-62
2022/06/20 08:02:33;;;;;;;13.45;4.05;;;16.20;99.90;;;;;;4992416;28;20061;-61
2022/06/20 08:05:00;;;;;;;9.48;3.55;;;16.00;99.90;;;;;;5019736;28;20457;-62
2022/06/20 08:07:31;;;;;;;9.48;3.40;;;15.80;99.90;;;;;;5026851;28;20055;-62
2022/06/20 08:10:12;;;;;;;10.23;3.78;;;15.70;99.90;;;;;;5037896;28;20053;-62
2022/06/20 08:12:41;;;;;;;12.35;4.55;;;15.70;99.90;;;;;;5006371;28;20490;-61
2022/06/20 08:15:22;;;;;;;13.45;4.60;;;15.50;99.90;;;;;;5034995;28;20045;-61
2022/06/20 08:17:49;;;;;;;10.23;3.97;;;15.30;99.90;;;;;;5026789;28;20065;-61
2022/06/20 08:20:15;;;;;;;9.38;4.38;;;15.40;99.90;;;;;;5042268;28;20129;-62
2022/06/20 08:22:48;;;;;;;15.05;4.50;;;15.30;99.90;;;;;;5010890;28;20045;-61
2022/06/20 08:25:24;;;;;;;13.20;3.92;;;15.40;99.90;;;;;;5016475;28;20096;-61
2022/06/20 08:28:16;;;;;;;13.88;4.32;;;15.50;99.90;;;;;;5024534;28;20253;-61
2022/06/20 08:30:56;;;;;;;10.13;3.83;;;15.50;99.90;;;;;;5044448;28;20084;-61
2022/06/20 08:33:36;;;;;;;9.57;3.72;;;15.70;99.90;;;;;;5026552;28;20050;-61
2022/06/20 08:36:26;;;;;;;15.23;4.10;;;16.00;99.90;;;;;;5000316;28;20080;-62
2022/06/20 08:39:05;;;;;;;12.82;4.82;;;16.10;99.90;;;;;;5001746;28;20517;-61
2022/06/20 08:41:37;;;;;;;11.43;4.10;;;16.20;99.90;;;;;;4994466;28;20498;-61
2022/06/20 08:44:26;;;;;;;9.48;3.83;;;16.40;99.90;;;;;;4992685;28;20050;-62
2022/06/20 08:47:22;;;;;;;10.13;3.17;;;16.50;99.90;;;;;;4996285;28;20462;-61
2022/06/20 08:49:57;;;;;;;7.97;3.15;;;16.50;99.90;;;;;;5000353;28;20049;-61
2022/06/20 08:53:00;;;;;;;9.63;3.80;;;16.20;99.90;;;;;;4996893;28;20046;-61
2022/06/20 08:55:36;;;;;;;9.57;4.50;;;16.00;99.90;;;;;;4991009;28;20054;-61
2022/06/20 08:58:02;;;;;;;7.10;3.55;;;15.90;99.90;;;;;;5000320;28;20045;-61
2022/06/20 09:00:35;;;;;;;9.05;3.50;;;15.70;99.90;;;;;;5017410;28;20080;-61
2022/06/20 09:03:07;;;;;;;9.98;3.38;;;15.50;99.90;;;;;;5016948;28;20049;-61
2022/06/20 09:05:42;;;;;;;8.05;3.08;;;15.50;99.90;;;;;;5020554;28;20080;-61
2022/06/20 09:08:35;;;;;;;6.68;2.90;;;15.80;99.90;;;;;;5011340;28;20493;-62
2022/06/20 09:11:36;;;;;;;9.25;3.03;;;15.90;99.90;;;;;;5050823;28;20487;-61
2022/06/20 09:14:11;;;;;;;8.05;2.97;;;16.30;99.90;;;;;;5022916;28;20044;-62
2022/06/20 09:17:15;;;;;;;7.82;2.90;;;16.60;99.90;;;;;;5034838;28;20037;-62
2022/06/20 09:19:57;;;;;;;5.20;2.58;;;16.80;99.90;;;;;;4967521;28;20073;-62
2022/06/20 09:23:01;;;;;;;6.68;2.42;;;16.70;99.90;;;;;;4961981;28;20046;-62
2022/06/20 09:25:59;;;;;;;8.18;2.63;;;16.40;99.90;;;;;;4952617;28;20137;-61
2022/06/20 09:28:49;;;;;;;4.47;2.40;;;16.40;99.90;;;;;;5015928;28;20083;-62
2022/06/20 09:31:33;;;;;;;7.20;2.60;;;16.50;99.90;;;;;;5012532;28;20057;-61
2022/06/20 09:34:08;;;;;;;7.30;3.03;;;16.60;99.90;;;;;;5014810;28;20122;-62
2022/06/20 09:36:58;;;;;;;8.18;3.10;;;16.40;99.90;;;;;;5006704;28;20053;-62
2022/06/20 09:39:29;;;;;;;7.78;2.70;;;16.40;99.90;;;;;;5016303;28;20046;-61
2022/06/20 09:42:36;;;;;;;9.85;3.28;;;16.40;99.90;;;;;;5006473;28;20592;-61
2022/06/20 09:45:27;;;;;;;11.13;3.78;;;16.70;99.90;;;;;;5016022;28;20076;-64
2022/06/20 09:48:47;;;;;;;2.50;1.95;;;16.90;99.90;;;;;;5020392;28;20053;-61
2022/06/20 09:51:18;;;;;;;;;;;16.90;99.90;;;;;;4947494;28;20052;-62
2022/06/20 09:54:16;;;;;;;9.27;2.97;;;16.90;99.90;;;;;;4942213;28;19997;-62
2022/06/20 09:57:27;;;;;;;4.85;2.67;;;17.00;99.90;;;;;;4928382;28;20606;-61
2022/06/20 10:00:06;;;;;;;8.85;2.78;;;17.10;99.90;;;;;;4950007;28;20196;-61
2022/06/20 10:02:51;;;;;;;6.53;2.65;;;17.00;99.90;;;;;;4957500;28;20142;-61
2022/06/20 10:05:32;;;;;;;7.35;2.92;;;16.80;99.90;;;;;;4938767;28;20090;-61
2022/06/20 10:08:06;;;;;;;6.05;2.60;;;16.70;99.90;;;;;;4959268;28;20047;-61
2022/06/20 10:10:41;;;;;;;8.35;3.30;;;16.70;99.90;;;;;;4956967;28;20055;-63
2022/06/20 10:13:19;;;;;;;6.05;2.92;;;17.00;99.90;;;;;;4963115;28;20055;-62
2022/06/20 10:16:10;;;;;;;6.85;2.50;;;17.40;99.90;;;;;;4960603;28;20051;-61
2022/06/20 10:18:39;;;;;;;6.85;3.22;;;17.60;99.90;;;;;;4971664;28;20450;-62
2022/06/20 10:21:14;;;;;;;5.82;1.95;;;17.40;99.90;;;;;;4921158;28;20082;-62
2022/06/20 10:24:06;;;;;;;7.68;3.20;;;17.30;99.90;;;;;;4967911;28;20096;-61
2022/06/20 10:27:06;;;;;;;8.02;2.47;;;17.10;99.90;;;;;;5031511;28;20041;-61
2022/06/20 10:30:01;;;;;;;5.82;2.80;;;17.00;99.90;;;;;;5004064;28;20084;-62
2022/06/20 10:32:37;;;;;;;7.50;3.05;;;16.70;99.90;;;;;;4995472;28;20087;-62
2022/06/20 10:35:31;;;;;;;10.63;3.63;;;16.80;99.90;;;;;;5014741;28;20050;-61
2022/06/20 10:38:09;;;;;;;5.63;2.80;;;17.10;99.90;;;;;;5017817;28;20050;-61
2022/06/20 10:40:49;;;;;;;7.47;3.42;;;17.30;99.90;;;;;;5013281;28;20305;-61
2022/06/20 10:43:35;;;;;;;3.67;2.60;;;17.30;99.90;;;;;;5021743;28;20079;-60
2022/06/20 10:46:12;;;;;;;6.35;3.08;;;17.40;99.90;;;;;;5011543;28;20072;-60
2022/06/20 10:49:11;;;;;;;7.95;3.00;;;17.60;99.90;;;;;;5018355;28;20129;-60
2022/06/20 10:52:14;;;;;;;9.13;2.90;;;17.60;99.90;;;;;;5026689;28;20061;-60
2022/06/20 10:55:03;;;;;;;6.25;2.45;;;17.70;99.90;;;;;;5012926;28;20058;-61
2022/06/20 10:57:58;;;;;;;16.50;2.90;;;17.80;99.90;;;;;;5038257;28;20063;-60
2022/06/20 11:00:27;;;;;;;8.10;2.45;;;17.90;99.90;;;;;;5047411;28;20044;-61
2022/06/20 11:03:01;;;;;;;6.80;2.35;;;18.00;99.90;;;;;;5024763;28;20056;-61
2022/06/20 11:05:39;;;;;;;6.00;2.70;;;18.10;99.90;;;;;;5046580;28;20048;-61
2022/06/20 11:08:21;;;;;;;5.18;2.72;;;18.30;99.90;;;;;;5048318;28;20048;-61
2022/06/20 11:11:18;;;;;;;4.63;2.30;;;18.10;99.90;;;;;;5044704;28;20051;-61
2022/06/20 11:13:55;;;;;;;10.93;3.08;;;17.80;99.90;;;;;;5020001;28;20475;-61
2022/06/20 11:16:39;;;;;;;4.63;2.20;;;17.70;99.90;;;;;;5050531;28;20171;-61
2022/06/20 11:19:28;;;;;;;9.55;2.78;;;17.80;99.90;;;;;;5027968;28;20045;-61
2022/06/20 11:22:21;;;;;;;5.97;2.75;;;18.30;99.90;;;;;;5049624;28;20057;-61
2022/06/20 11:25:14;;;;;;;3.90;2.35;;;18.30;99.90;;;;;;5021384;28;20053;-61
2022/06/20 11:27:56;;;;;;;5.40;2.53;;;18.30;99.90;;;;;;5030174;28;20052;-61
2022/06/20 11:30:50;;;;;;;6.45;3.10;;;18.10;99.90;;;;;;5047805;28;20346;-61
2022/06/20 11:34:03;;;;;;;7.57;2.88;;;18.40;99.90;;;;;;5028562;28;20566;-60
2022/06/20 11:36:58;;;;;;;6.35;2.45;;;18.50;99.90;;;;;;5020251;28;20072;-61
2022/06/20 11:39:36;;;;;;;32.05;3.80;;;18.40;99.90;;;;;;5006501;28;20086;-61
2022/06/20 11:42:22;;;;;;;7.53;2.67;;;18.40;99.90;;;;;;5003203;28;20554;-61
2022/06/20 11:45:15;;;;;;;4.45;2.63;;;18.50;99.90;;;;;;5032164;28;20474;-61
2022/06/20 11:47:52;;;;;;;6.45;2.53;;;18.80;99.90;;;;;;5034978;28;20141;-60
2022/06/20 11:50:39;;;;;;;5.88;2.85;;;18.70;99.90;;;;;;5019668;28;20578;-61
2022/06/20 11:53:24;;;;;;;6.97;2.65;;;18.30;99.90;;;;;;5020005;28;20053;-61
2022/06/20 11:56:03;;;;;;;5.90;2.75;;;18.40;99.90;;;;;;5022447;28;20415;-60
2022/06/20 11:58:50;;;;;;;3.67;2.25;;;18.60;99.90;;;;;;5032876;28;20059;-61
2022/06/20 12:01:32;;;;;;;7.20;2.78;;;18.80;99.90;;;;;;5020989;28;20097;-61
2022/06/20 12:04:27;;;;;;;5.40;2.58;;;18.80;99.90;;;;;;5011190;28;20569;-61
2022/06/20 12:07:20;;;;;;;9.32;2.90;;;18.30;99.90;;;;;;5029055;28;20535;-61
2022/06/20 12:10:18;;;;;;;5.60;2.50;;;18.40;99.90;;;;;;5034209;28;20056;-61
2022/06/20 12:12:55;;;;;;;4.70;2.75;;;18.40;99.90;;;;;;4971981;28;20054;-60
2022/06/20 12:15:37;;;;;;;8.02;2.72;;;18.40;99.90;;;;;;5028882;28;20042;-60
2022/06/20 12:18:22;;;;;;;6.97;2.80;;;18.50;99.90;;;;;;5012692;28;20132;-60
2022/06/20 12:23:48;;;;;;;8.27;2.63;;;19.00;99.90;;;;;;5027278;28;20051;-61
2022/06/20 12:26:35;;;;;;;7.95;2.60;;;18.80;99.90;;;;;;5046572;28;20616;-61
2022/06/20 12:29:12;;;;;;;6.75;2.70;;;18.50;99.90;;;;;;5045704;28;20049;-61
2022/06/20 12:31:41;;;;;;;8.10;3.10;;;18.30;99.90;;;;;;5046040;28;20057;-61
2022/06/20 12:34:39;;;;;;;6.28;3.03;;;18.10;99.90;;;;;;4992060;28;20046;-61
2022/06/20 12:37:26;;;;;;;5.72;2.30;;;18.40;99.90;;;;;;5016305;28;20173;-61
2022/06/20 12:39:58;;;;;;;7.13;2.90;;;18.70;99.90;;;;;;5058334;28;20502;-61
2022/06/20 12:42:30;;;;;;;6.13;3.65;;;18.40;99.90;;;;;;5024595;28;20050;-61
2022/06/20 12:45:24;;;;;;;4.45;2.60;;;18.50;99.90;;;;;;5055775;28;20055;-61
2022/06/20 12:48:17;;;;;;;8.02;2.55;;;18.50;99.90;;;;;;5047007;28;20124;-61
2022/06/20 12:50:54;;;;;;;4.68;2.47;;;18.50;99.90;;;;;;5042657;28;20584;-61
2022/06/20 12:53:50;;;;;;;5.97;2.92;;;18.70;99.90;;;;;;4991477;28;20125;-61
2022/06/20 12:56:38;;;;;;;7.22;3.10;;;19.20;99.90;;;;;;5035716;28;20054;-61
2022/06/20 12:59:54;;;;;;;4.80;2.30;;;19.10;99.90;;;;;;5022846;28;20057;-61
2022/06/20 13:03:00;;;;;;;7.15;2.90;;;19.10;99.90;;;;;;4941492;28;20052;-61
2022/06/20 13:05:57;;;;;;;7.85;3.08;;;19.30;99.90;;;;;;4939847;28;20051;-61
2022/06/20 13:08:23;;;;;;;5.80;3.03;;;19.40;99.90;;;;;;4952148;28;20058;-61
2022/06/20 13:11:07;;;;;;;5.38;3.33;;;19.20;99.90;;;;;;4991983;28;20050;-60
2022/06/20 13:13:48;;;;;;;6.32;2.67;;;18.90;99.90;;;;;;4988600;28;20058;-61
2022/06/20 13:16:21;;;;;;;5.85;2.70;;;18.60;99.90;;;;;;4972420;28;20046;-60
2022/06/20 13:19:01;;;;;;;4.90;2.53;;;18.40;99.90;;;;;;4991862;28;20391;-61
2022/06/20 13:21:40;;;;;;;232.02;14.55;;;18.40;99.90;;;;;;4976460;28;20077;-61
2022/06/20 13:24:33;;;;;;;7.57;3.00;;;18.50;99.90;;;;;;4996522;28;20151;-60
2022/06/20 13:27:24;;;;;;;5.80;2.83;;;18.70;99.90;;;;;;4994690;28;20046;-61
2022/06/20 13:29:58;;;;;;;4.85;2.90;;;19.50;99.90;;;;;;4966910;28;20054;-61
2022/06/20 13:32:36;;;;;;;3.72;2.42;;;20.00;99.90;;;;;;4987794;28;20055;-61
2022/06/20 13:35:26;;;;;;;3.28;2.53;;;20.20;99.90;;;;;;4979118;28;20053;-61
2022/06/20 13:38:10;;;;;;;;;;;19.80;99.90;;;;;;5005886;28;20061;-61
2022/06/20 13:41:00;;;;;;;5.82;2.92;;;19.60;99.90;;;;;;5018550;28;19974;-61
2022/06/20 13:44:04;;;;;;;6.15;2.88;;;19.40;99.90;;;;;;5009845;28;20362;-61
2022/06/20 13:46:44;;;;;;;3.78;2.45;;;20.00;99.90;;;;;;5019383;28;20061;-61
2022/06/20 13:49:18;;;;;;;4.05;2.17;;;20.10;99.90;;;;;;5043256;28;20064;-61
2022/06/20 13:52:05;;;;;;;7.78;3.45;;;19.50;99.90;;;;;;5019929;28;20052;-61
2022/06/20 13:54:40;;;;;;;8.25;2.90;;;19.60;99.90;;;;;;5035687;28;20040;-61
2022/06/20 13:57:14;;;;;;;4.80;2.65;;;19.90;99.90;;;;;;5035154;28;20061;-61